Time;durP1;ratioP1;P1;durP2;ratioP2;P2;SDS_P1;SDS_P2;PMS_P1;PMS_P2;Temp;Humidity;BMP_temperature;BMP_pressure;BME280_temperature;BME280_humidity;BME280_pressure;Samples;Min_cycle;Max_cycle;Signal;HPM_P1;HPM_P2
2022/05/31 00:00:05;;;;;;;13.30;7.93;;;;;;;;;;5012790;28;20073;-44
2022/05/31 00:02:31;;;;;;;11.70;7.22;;;;;;;;;;5012883;28;20104;-50
2022/05/31 00:04:56;;;;;;;14.05;8.38;;;;;;;;;;5013119;28;20196;-50
2022/05/31 00:07:22;;;;;;;9.60;6.95;;;;;;;;;;5012754;28;20052;-56
2022/05/31 00:09:47;;;;;;;11.50;7.25;;;;;;;;;;5012779;28;20125;-61
2022/05/31 00:12:14;;;;;;;13.02;6.47;;;;;;;;;;5013028;28;20064;-56
2022/05/31 00:14:39;;;;;;;11.13;6.85;;;;;;;;;;5012628;28;20018;-48
2022/05/31 00:17:05;;;;;;;13.95;7.32;;;;;;;;;;5012716;28;20041;-42
2022/05/31 00:19:31;;;;;;;9.90;6.78;;;;;;;;;;5012552;28;20025;-57
2022/05/31 00:22:09;;;;;;;13.18;7.55;;;;;;;;;;5012606;28;20121;-47
2022/05/31 00:24:36;;;;;;;10.70;7.75;;;;;;;;;;5012913;28;20030;-55
2022/05/31 00:27:03;;;;;;;10.55;7.80;;;;;;;;;;5012795;28;20049;-48
2022/05/31 00:29:29;;;;;;;9.82;7.63;;;;;;;;;;5012582;28;20123;-43
2022/05/31 00:31:55;;;;;;;12.02;8.18;;;;;;;;;;5012524;28;20033;-42
2022/05/31 00:34:20;;;;;;;9.40;7.25;;;;;;;;;;5012719;28;20092;-40
2022/05/31 00:36:49;;;;;;;13.82;8.30;;;;;;;;;;5012484;28;20454;-60
2022/05/31 00:39:15;;;;;;;16.08;8.32;;;;;;;;;;5012519;28;20100;-49
2022/05/31 00:41:41;;;;;;;13.50;7.88;;;;;;;;;;5012744;28;20034;-38
2022/05/31 00:44:15;;;;;;;12.98;8.52;;;;;;;;;;4995255;28;20022;-48
2022/05/31 00:46:43;;;;;;;8.95;7.38;;;;;;;;;;5012626;28;20441;-51
2022/05/31 00:49:11;;;;;;;10.35;7.13;;;;;;;;;;5012653;28;20038;-41
2022/05/31 00:51:48;;;;;;;10.13;6.65;;;;;;;;;;5015425;28;20030;-44
2022/05/31 00:54:17;;;;;;;8.75;6.13;;;;;;;;;;5016325;28;20370;-40
2022/05/31 00:56:44;;;;;;;11.35;5.38;;;;;;;;;;5016208;28;20017;-43
2022/05/31 00:59:15;;;;;;;8.77;6.10;;;;;;;;;;5016125;28;20116;-47
2022/05/31 01:01:43;;;;;;;9.63;6.60;;;;;;;;;;5016068;28;20501;-39
2022/05/31 01:04:10;;;;;;;8.02;6.20;;;;;;;;;;4998924;28;20073;-42
2022/05/31 01:06:37;;;;;;;13.52;7.40;;;;;;;;;;5016295;28;20176;-61
2022/05/31 01:09:03;;;;;;;11.07;7.80;;;;;;;;;;5015914;28;20366;-39
2022/05/31 01:11:34;;;;;;;16.23;8.95;;;;;;;;;;5015966;28;20022;-41
2022/05/31 01:14:00;;;;;;;14.82;8.90;;;;;;;;;;5015940;28;20057;-53
2022/05/31 01:16:26;;;;;;;16.30;9.63;;;;;;;;;;5015885;28;20030;-39
2022/05/31 01:18:52;;;;;;;18.38;9.82;;;;;;;;;;4998527;28;20033;-42
2022/05/31 01:21:17;;;;;;;15.55;9.40;;;;;;;;;;5016008;28;20080;-40
2022/05/31 01:23:59;;;;;;;16.83;10.18;;;;;;;;;;5015725;28;20030;-40
2022/05/31 01:26:58;;;;;;;21.25;10.48;;;;;;;;;;5015645;28;20022;-56
2022/05/31 01:29:30;;;;;;;12.15;8.48;;;;;;;;;;5015648;28;20101;-56
2022/05/31 01:32:00;;;;;;;12.15;7.85;;;;;;;;;;5015593;28;20022;-61
2022/05/31 01:34:52;;;;;;;12.85;8.63;;;;;;;;;;5015487;28;20024;-39
2022/05/31 01:37:21;;;;;;;13.25;8.35;;;;;;;;;;5015506;28;20121;-52
2022/05/31 01:39:52;;;;;;;13.13;7.65;;;;;;;;;;5015294;28;20105;-53
2022/05/31 01:42:42;;;;;;;10.18;7.55;;;;;;;;;;5015689;28;20390;-50
2022/05/31 01:45:26;;;;;;;15.05;7.85;;;;;;;;;;5015304;28;20496;-62
2022/05/31 01:48:01;;;;;;;11.48;7.35;;;;;;;;;;5015317;28;20065;-48
2022/05/31 01:50:26;;;;;;;8.82;6.28;;;;;;;;;;5015218;28;20367;-45
2022/05/31 01:52:53;;;;;;;9.30;6.90;;;;;;;;;;5015420;28;20030;-60
2022/05/31 01:55:19;;;;;;;9.68;6.75;;;;;;;;;;5015129;28;20018;-48
2022/05/31 01:57:52;;;;;;;12.00;7.55;;;;;;;;;;5015320;28;20030;-56
2022/05/31 02:00:19;;;;;;;28.48;8.60;;;;;;;;;;5014987;28;20029;-43
2022/05/31 02:02:48;;;;;;;13.23;6.75;;;;;;;;;;5013951;28;20026;-61
2022/05/31 02:05:14;;;;;;;12.10;7.65;;;;;;;;;;5014900;28;20034;-60
2022/05/31 02:07:40;;;;;;;13.13;7.63;;;;;;;;;;5015076;28;20100;-62
2022/05/31 02:10:05;;;;;;;16.95;6.45;;;;;;;;;;5014814;28;20057;-41
2022/05/31 02:12:31;;;;;;;11.20;6.57;;;;;;;;;;5015024;28;20026;-49
2022/05/31 02:14:57;;;;;;;14.48;7.88;;;;;;;;;;5014953;28;20470;-46
2022/05/31 02:17:23;;;;;;;12.05;7.43;;;;;;;;;;5014994;28;20064;-40
2022/05/31 02:19:49;;;;;;;16.45;7.95;;;;;;;;;;5014861;28;20069;-51
2022/05/31 02:22:17;;;;;;;12.02;7.05;;;;;;;;;;5014871;28;20545;-39
2022/05/31 02:24:43;;;;;;;10.50;6.55;;;;;;;;;;5014569;28;20478;-45
2022/05/31 02:27:10;;;;;;;9.23;5.72;;;;;;;;;;5014494;28;20148;-58
2022/05/31 02:29:37;;;;;;;15.18;5.22;;;;;;;;;;5014350;28;20049;-61
2022/05/31 02:32:06;;;;;;;7.05;5.05;;;;;;;;;;5014410;28;20113;-60
2022/05/31 02:34:37;;;;;;;12.20;6.15;;;;;;;;;;5014653;28;20557;-55
2022/05/31 02:37:03;;;;;;;;;;;;;;;;;;5015065;28;20025;-60
2022/05/31 02:39:29;;;;;;;13.05;7.72;;;;;;;;;;5014134;28;19943;-59
2022/05/31 02:41:56;;;;;;;14.98;8.35;;;;;;;;;;5014248;28;20037;-39
2022/05/31 02:44:22;;;;;;;18.98;8.55;;;;;;;;;;5014460;28;20022;-43
2022/05/31 02:46:47;;;;;;;18.88;8.88;;;;;;;;;;5014383;28;20367;-45
2022/05/31 02:49:13;;;;;;;15.23;8.85;;;;;;;;;;5014445;28;20033;-39
2022/05/31 02:51:42;;;;;;;12.77;8.55;;;;;;;;;;5014050;28;20045;-54
2022/05/31 02:54:09;;;;;;;14.20;8.50;;;;;;;;;;5014064;28;20018;-58
2022/05/31 02:56:34;;;;;;;15.05;8.10;;;;;;;;;;4996443;28;20295;-38
2022/05/31 02:59:00;;;;;;;16.40;8.18;;;;;;;;;;4996205;28;20026;-62
2022/05/31 03:01:30;;;;;;;13.75;8.52;;;;;;;;;;5013992;28;20418;-60
2022/05/31 03:03:56;;;;;;;18.85;9.13;;;;;;;;;;5014150;28;20021;-47
2022/05/31 03:06:22;;;;;;;18.02;8.93;;;;;;;;;;4996558;28;20022;-50
2022/05/31 03:08:48;;;;;;;35.20;8.18;;;;;;;;;;4996265;28;20072;-46
2022/05/31 03:11:25;;;;;;;43.60;7.97;;;;;;;;;;5013745;28;20029;-62
2022/05/31 03:13:54;;;;;;;19.73;10.40;;;;;;;;;;5013826;28;20029;-38
2022/05/31 03:16:22;;;;;;;19.92;10.05;;;;;;;;;;5013667;28;20049;-58
2022/05/31 03:18:57;;;;;;;20.65;9.85;;;;;;;;;;5013410;28;20036;-46
2022/05/31 03:21:29;;;;;;;17.55;10.20;;;;;;;;;;5013589;28;20031;-43
2022/05/31 03:24:02;;;;;;;10.45;7.13;;;;;;;;;;5013586;28;20026;-46
2022/05/31 03:26:31;;;;;;;16.92;9.88;;;;;;;;;;5013403;28;20022;-56
2022/05/31 03:28:57;;;;;;;12.82;8.57;;;;;;;;;;5012644;28;20083;-62
2022/05/31 03:31:23;;;;;;;10.32;6.80;;;;;;;;;;4960315;28;20117;-63
2022/05/31 03:33:48;;;;;;;20.25;6.78;;;;;;;;;;4993722;28;20041;-63
2022/05/31 03:36:14;;;;;;;10.10;6.45;;;;;;;;;;4976235;28;20030;-53
2022/05/31 03:38:40;;;;;;;8.82;5.50;;;;;;;;;;4993656;28;20061;-61
2022/05/31 03:41:06;;;;;;;9.38;5.80;;;;;;;;;;4993493;28;20102;-58
2022/05/31 03:43:33;;;;;;;12.23;5.80;;;;;;;;;;4993537;28;20473;-47
2022/05/31 03:45:59;;;;;;;12.13;6.43;;;;;;;;;;4993730;28;20022;-58
2022/05/31 03:48:27;;;;;;;16.10;7.90;;;;;;;;;;4993756;28;20077;-52
2022/05/31 03:51:04;;;;;;;9.57;6.03;;;;;;;;;;4976588;28;20045;-47
2022/05/31 03:53:31;;;;;;;9.85;5.82;;;;;;;;;;4993678;28;20026;-39
2022/05/31 03:55:57;;;;;;;11.85;6.38;;;;;;;;;;4993421;28;20065;-42
2022/05/31 03:58:22;;;;;;;11.00;6.70;;;;;;;;;;4993381;28;20431;-40
2022/05/31 04:00:48;;;;;;;8.90;6.43;;;;;;;;;;4993452;28;20034;-62
2022/05/31 04:03:14;;;;;;;14.35;7.38;;;;;;;;;;4975884;28;20081;-40
2022/05/31 04:05:40;;;;;;;12.98;6.72;;;;;;;;;;4993471;28;20061;-63
2022/05/31 04:08:10;;;;;;;13.27;6.00;;;;;;;;;;4993275;28;20035;-63
2022/05/31 04:10:36;;;;;;;8.00;5.55;;;;;;;;;;4993160;28;20474;-62
2022/05/31 04:13:02;;;;;;;9.43;5.55;;;;;;;;;;4993107;28;20074;-46
2022/05/31 04:15:28;;;;;;;10.85;7.38;;;;;;;;;;4993150;28;20478;-53
2022/05/31 04:17:54;;;;;;;11.13;6.25;;;;;;;;;;4993049;28;20630;-51
2022/05/31 04:20:19;;;;;;;13.32;7.55;;;;;;;;;;4992914;28;20034;-56
2022/05/31 04:22:45;;;;;;;12.90;7.07;;;;;;;;;;4993076;28;20022;-47
2022/05/31 04:25:11;;;;;;;11.60;7.18;;;;;;;;;;4992707;28;20432;-54
2022/05/31 04:27:36;;;;;;;11.18;7.25;;;;;;;;;;4993290;28;20176;-42
2022/05/31 04:30:03;;;;;;;12.25;7.20;;;;;;;;;;5002322;28;20053;-57
2022/05/31 04:32:28;;;;;;;10.23;6.93;;;;;;;;;;5012550;28;20022;-52
2022/05/31 04:34:54;;;;;;;10.18;6.55;;;;;;;;;;5012547;28;20042;-55
2022/05/31 04:37:20;;;;;;;11.60;7.18;;;;;;;;;;5012521;28;20034;-46
2022/05/31 04:39:45;;;;;;;10.73;7.15;;;;;;;;;;5012700;28;20034;-41
2022/05/31 04:42:11;;;;;;;10.90;7.43;;;;;;;;;;5012514;28;20041;-52
2022/05/31 04:44:37;;;;;;;11.70;7.25;;;;;;;;;;5012725;28;20041;-40
2022/05/31 04:47:05;;;;;;;13.23;7.25;;;;;;;;;;5012762;28;20057;-40
2022/05/31 04:49:30;;;;;;;16.52;8.43;;;;;;;;;;5012427;28;20478;-55
2022/05/31 04:51:55;;;;;;;11.82;6.82;;;;;;;;;;5012407;28;20229;-59
2022/05/31 04:54:24;;;;;;;12.40;6.93;;;;;;;;;;5012481;28;20387;-60
2022/05/31 04:56:49;;;;;;;10.75;6.90;;;;;;;;;;5012270;28;20030;-55
2022/05/31 04:59:17;;;;;;;11.15;6.18;;;;;;;;;;5012265;28;20044;-41
2022/05/31 05:01:43;;;;;;;9.93;6.38;;;;;;;;;;5012299;28;20029;-63
2022/05/31 05:04:10;;;;;;;13.15;6.43;;;;;;;;;;5012238;28;20081;-61
2022/05/31 05:06:36;;;;;;;8.43;5.55;;;;;;;;;;5012264;28;20474;-61
2022/05/31 05:09:02;;;;;;;10.57;5.78;;;;;;;;;;5012276;28;20028;-61
2022/05/31 05:11:27;;;;;;;11.05;5.47;;;;;;;;;;5012462;28;20104;-62
2022/05/31 05:13:56;;;;;;;11.40;4.82;;;;;;;;;;5012283;28;20025;-58
2022/05/31 05:16:21;;;;;;;8.30;5.50;;;;;;;;;;5012104;28;20065;-61
2022/05/31 05:18:47;;;;;;;8.90;5.45;;;;;;;;;;5012084;28;20058;-60
2022/05/31 05:21:15;;;;;;;5.97;4.18;;;;;;;;;;5011996;28;20038;-61
2022/05/31 05:23:41;;;;;;;8.57;5.03;;;;;;;;;;5017916;28;20056;-60
2022/05/31 05:26:07;;;;;;;7.32;5.60;;;;;;;;;;5030507;28;20034;-50
2022/05/31 05:31:28;;;;;;;7.60;5.03;;;;;;;;;;5031876;28;20092;-60
2022/05/31 05:33:57;;;;;;;8.68;5.25;;;;;;;;;;5031625;28;20026;-51
2022/05/31 05:36:24;;;;;;;5.68;4.55;;;;;;;;;;5031545;28;20026;-60
2022/05/31 05:38:50;;;;;;;7.45;4.20;;;;;;;;;;5034980;28;20038;-45
2022/05/31 05:41:17;;;;;;;6.35;4.50;;;;;;;;;;5035167;28;20104;-57
2022/05/31 05:43:42;;;;;;;7.78;4.63;;;;;;;;;;5035019;28;20112;-45
2022/05/31 05:46:15;;;;;;;6.70;4.53;;;;;;;;;;5035321;28;20105;-57
2022/05/31 05:48:42;;;;;;;6.75;4.07;;;;;;;;;;5034954;28;20014;-45
2022/05/31 05:51:17;;;;;;;6.88;3.92;;;;;;;;;;5034346;28;20029;-43
2022/05/31 05:53:43;;;;;;;7.10;4.47;;;;;;;;;;5034866;28;20485;-57
2022/05/31 05:56:09;;;;;;;4.78;3.80;;;;;;;;;;5034937;28;20143;-49
2022/05/31 05:58:35;;;;;;;8.23;4.53;;;;;;;;;;5034733;28;20117;-43
2022/05/31 06:01:01;;;;;;;7.60;4.28;;;;;;;;;;5034952;28;20156;-60
2022/05/31 06:03:35;;;;;;;4.78;3.78;;;;;;;;;;5034742;28;20032;-59
2022/05/31 06:06:00;;;;;;;6.03;3.92;;;;;;;;;;5025143;28;20583;-49
2022/05/31 06:08:35;;;;;;;8.88;4.50;;;;;;;;;;5023862;28;20113;-51
2022/05/31 06:11:10;;;;;;;4.60;3.97;;;;;;;;;;5002043;28;20018;-61
2022/05/31 06:13:43;;;;;;;7.97;4.63;;;;;;;;;;5011754;28;20033;-59
2022/05/31 06:16:09;;;;;;;5.40;3.85;;;;;;;;;;5014650;28;20030;-54
2022/05/31 06:18:48;;;;;;;5.22;3.85;;;;;;;;;;5014683;28;20037;-60
2022/05/31 06:21:15;;;;;;;6.78;4.32;;;;;;;;;;5014568;28;20026;-60
2022/05/31 06:23:42;;;;;;;5.85;4.13;;;;;;;;;;5014496;28;20034;-59
2022/05/31 06:26:07;;;;;;;5.43;3.15;;;;;;;;;;5023055;28;20111;-59
2022/05/31 06:28:33;;;;;;;4.85;3.25;;;;;;;;;;5034246;28;20061;-60
2022/05/31 06:30:58;;;;;;;5.10;2.83;;;;;;;;;;5033779;28;20501;-58
2022/05/31 06:33:24;;;;;;;3.75;2.75;;;;;;;;;;5034371;28;20389;-59
2022/05/31 06:35:49;;;;;;;4.88;3.40;;;;;;;;;;5034473;28;20021;-56
2022/05/31 06:38:17;;;;;;;10.07;5.40;;;;;;;;;;5016318;28;20025;-54
2022/05/31 06:40:42;;;;;;;7.60;3.30;;;;;;;;;;5033976;28;20030;-55
2022/05/31 06:43:08;;;;;;;4.50;2.90;;;;;;;;;;5034362;28;20024;-55
2022/05/31 06:45:34;;;;;;;4.88;3.13;;;;;;;;;;5034052;28;20021;-59
2022/05/31 06:47:59;;;;;;;3.83;2.70;;;;;;;;;;5033445;28;20373;-41
2022/05/31 06:50:25;;;;;;;3.47;2.58;;;;;;;;;;5033959;28;20100;-57
2022/05/31 06:58:18;;;;;;;4.55;2.92;;;;;;;;;;5034054;28;20044;-50
2022/05/31 07:00:44;;;;;;;3.38;2.67;;;;;;;;;;5033305;28;20021;-52
2022/05/31 07:03:09;;;;;;;3.15;2.15;;;;;;;;;;5033940;28;20464;-58
2022/05/31 07:05:35;;;;;;;6.30;2.35;;;;;;;;;;5033807;28;20436;-56
2022/05/31 07:08:00;;;;;;;2.58;2.13;;;;;;;;;;5033521;28;20041;-55
2022/05/31 07:10:26;;;;;;;3.83;2.88;;;;;;;;;;5033694;28;20495;-59
2022/05/31 07:12:51;;;;;;;5.05;2.90;;;;;;;;;;5033428;28;20022;-44
2022/05/31 07:15:17;;;;;;;3.38;2.92;;;;;;;;;;5033421;28;20029;-58
2022/05/31 07:17:44;;;;;;;4.10;2.92;;;;;;;;;;5033373;28;20021;-49
2022/05/31 07:20:11;;;;;;;5.78;3.65;;;;;;;;;;5033239;28;20064;-52
2022/05/31 07:22:38;;;;;;;4.72;3.33;;;;;;;;;;5033343;28;20024;-57
2022/05/31 07:25:04;;;;;;;5.28;4.18;;;;;;;;;;5033242;28;20112;-54
2022/05/31 07:27:30;;;;;;;6.93;3.85;;;;;;;;;;5024517;28;20029;-50
2022/05/31 07:29:56;;;;;;;5.28;3.45;;;;;;;;;;5013400;28;20038;-60
2022/05/31 07:32:21;;;;;;;4.65;3.47;;;;;;;;;;5011574;28;20092;-64
2022/05/31 07:34:49;;;;;;;4.05;3.20;;;;;;;;;;5010091;28;20113;-52
2022/05/31 07:37:14;;;;;;;4.38;2.75;;;;;;;;;;5013297;28;20110;-64
2022/05/31 07:39:40;;;;;;;8.30;3.80;;;;;;;;;;5012829;28;20450;-44
2022/05/31 07:42:06;;;;;;;6.05;3.40;;;;;;;;;;5016039;28;20029;-59
2022/05/31 07:44:32;;;;;;;5.15;3.17;;;;;;;;;;5012822;28;20152;-44
2022/05/31 07:46:59;;;;;;;5.05;3.22;;;;;;;;;;5012996;28;20025;-61
2022/05/31 07:49:25;;;;;;;5.72;3.10;;;;;;;;;;5012976;28;20026;-61
2022/05/31 07:51:50;;;;;;;4.57;3.15;;;;;;;;;;5013056;28;20052;-52
2022/05/31 07:54:16;;;;;;;5.10;3.50;;;;;;;;;;5013211;28;20025;-61
2022/05/31 07:56:42;;;;;;;3.85;2.88;;;;;;;;;;5012860;28;20485;-59
2022/05/31 07:59:07;;;;;;;3.80;2.85;;;;;;;;;;5012532;28;20029;-46
2022/05/31 08:01:33;;;;;;;5.22;3.55;;;;;;;;;;5012566;28;20022;-40
2022/05/31 08:03:58;;;;;;;6.05;3.38;;;;;;;;;;5012717;28;20109;-47
2022/05/31 08:06:29;;;;;;;6.72;3.00;;;;;;;;;;5012771;28;20021;-54
2022/05/31 08:08:56;;;;;;;4.45;2.88;;;;;;;;;;5012702;28;20165;-56
2022/05/31 08:11:30;;;;;;;7.60;3.53;;;;;;;;;;5012937;28;20056;-52
2022/05/31 08:13:57;;;;;;;7.72;3.55;;;;;;;;;;5012626;28;20033;-42
2022/05/31 08:16:25;;;;;;;7.07;4.00;;;;;;;;;;5012570;28;20030;-41
2022/05/31 08:18:51;;;;;;;4.07;3.25;;;;;;;;;;5012644;28;20029;-56
2022/05/31 08:21:20;;;;;;;3.67;3.00;;;;;;;;;;5012880;28;20038;-45
2022/05/31 08:23:45;;;;;;;5.28;3.05;;;;;;;;;;5012616;28;20498;-58
2022/05/31 08:26:11;;;;;;;3.25;2.55;;;;;;;;;;5012988;28;20071;-55
2022/05/31 08:28:37;;;;;;;3.83;3.15;;;;;;;;;;5012794;28;20034;-56
2022/05/31 08:31:10;;;;;;;3.60;3.10;;;;;;;;;;5012449;28;20125;-48
2022/05/31 08:33:36;;;;;;;5.53;3.47;;;;;;;;;;5012663;28;20049;-51
2022/05/31 08:36:02;;;;;;;3.70;2.38;;;;;;;;;;4995341;28;20076;-41
2022/05/31 08:38:28;;;;;;;3.58;2.60;;;;;;;;;;5012538;28;20065;-40
2022/05/31 08:41:16;;;;;;;6.03;2.90;;;;;;;;;;5012674;28;20030;-42
2022/05/31 08:43:47;;;;;;;3.35;2.60;;;;;;;;;;5012423;28;20117;-63
2022/05/31 08:46:34;;;;;;;5.10;3.30;;;;;;;;;;5012475;28;20026;-60
2022/05/31 08:49:21;;;;;;;3.10;2.60;;;;;;;;;;5012743;28;20062;-47
2022/05/31 08:51:55;;;;;;;4.20;3.00;;;;;;;;;;5001802;28;20034;-56
2022/05/31 08:57:19;;;;;;;4.80;2.90;;;;;;;;;;5012427;28;20041;-49
2022/05/31 08:59:53;;;;;;;6.03;2.70;;;;;;;;;;5012237;28;20034;-62
2022/05/31 09:02:21;;;;;;;2.60;2.40;;;;;;;;;;5012303;28;20029;-49
2022/05/31 09:05:14;;;;;;;3.05;2.20;;;;;;;;;;5012018;28;20434;-56
2022/05/31 09:07:49;;;;;;;3.55;2.50;;;;;;;;;;5012266;28;20030;-40
2022/05/31 09:10:30;;;;;;;3.22;2.58;;;;;;;;;;5012543;28;20570;-61
2022/05/31 09:12:58;;;;;;;4.63;2.20;;;;;;;;;;5015740;28;20112;-44
2022/05/31 09:15:31;;;;;;;2.60;2.40;;;;;;;;;;5016104;28;20022;-49
2022/05/31 09:18:07;;;;;;;5.68;3.45;;;;;;;;;;5016080;28;20033;-62
2022/05/31 09:20:41;;;;;;;4.78;3.03;;;;;;;;;;5015760;28;20022;-49
2022/05/31 09:23:07;;;;;;;4.97;2.53;;;;;;;;;;5015860;28;20034;-45
2022/05/31 09:25:39;;;;;;;3.75;2.50;;;;;;;;;;5015724;28;20113;-46
2022/05/31 09:28:22;;;;;;;4.57;2.35;;;;;;;;;;5015724;28;20062;-46
2022/05/31 09:30:48;;;;;;;3.08;2.47;;;;;;;;;;5015420;28;20057;-45
2022/05/31 09:33:26;;;;;;;4.22;2.40;;;;;;;;;;5015644;28;20022;-44
2022/05/31 09:36:27;;;;;;;2.95;2.28;;;;;;;;;;5015279;28;20489;-43
2022/05/31 09:39:21;;;;;;;2.60;2.13;;;;;;;;;;4973717;28;20041;-57
2022/05/31 09:41:58;;;;;;;2.95;2.10;;;;;;;;;;5015668;28;20406;-40
2022/05/31 09:44:27;;;;;;;4.60;2.17;;;;;;;;;;5021279;28;20025;-40
2022/05/31 09:47:27;;;;;;;2.55;2.30;;;;;;;;;;5035135;28;20026;-51
2022/05/31 09:49:54;;;;;;;3.42;2.05;;;;;;;;;;5013625;28;20037;-46
2022/05/31 09:52:30;;;;;;;3.55;1.98;;;;;;;;;;5034990;28;20381;-41
2022/05/31 09:58:08;;;;;;;2.30;2.10;;;;;;;;;;5034758;28;20546;-57
2022/05/31 10:00:36;;;;;;;2.90;1.95;;;;;;;;;;5034915;28;20029;-39
2022/05/31 10:03:14;;;;;;;3.17;2.08;;;;;;;;;;5016763;28;20056;-53
2022/05/31 10:05:41;;;;;;;2.58;2.38;;;;;;;;;;5034638;28;20033;-48
2022/05/31 10:08:30;;;;;;;3.00;1.70;;;;;;;;;;5034612;28;20035;-45
2022/05/31 10:10:56;;;;;;;2.13;1.63;;;;;;;;;;5034653;28;20489;-49
2022/05/31 10:13:42;;;;;;;1.63;1.52;;;;;;;;;;5034496;28;20030;-39
2022/05/31 10:16:11;;;;;;;2.95;2.17;;;;;;;;;;5034656;28;20037;-48
2022/05/31 10:18:48;;;;;;;4.63;2.20;;;;;;;;;;5034479;28;20037;-41
2022/05/31 10:21:28;;;;;;;4.10;2.60;;;;;;;;;;5034371;28;20029;-51
2022/05/31 10:23:54;;;;;;;2.97;1.77;;;;;;;;;;5033688;28;20021;-51
2022/05/31 10:26:28;;;;;;;3.97;2.03;;;;;;;;;;5034182;28;20381;-46
2022/05/31 10:28:58;;;;;;;2.33;2.10;;;;;;;;;;5033997;28;20168;-40
2022/05/31 10:31:39;;;;;;;5.10;2.20;;;;;;;;;;5034108;28;20058;-48
2022/05/31 10:34:21;;;;;;;2.20;1.80;;;;;;;;;;5034448;28;20036;-60
2022/05/31 10:36:54;;;;;;;2.42;1.98;;;;;;;;;;5034044;28;20393;-56
2022/05/31 10:39:30;;;;;;;5.30;2.10;;;;;;;;;;5034158;28;20052;-57
2022/05/31 10:41:59;;;;;;;2.95;1.85;;;;;;;;;;5033930;28;20095;-59
2022/05/31 10:44:31;;;;;;;3.72;1.70;;;;;;;;;;5033363;28;20045;-57
2022/05/31 10:47:12;;;;;;;3.55;2.20;;;;;;;;;;5033746;28;20037;-47
2022/05/31 10:49:40;;;;;;;2.42;1.95;;;;;;;;;;5033793;28;20472;-60
2022/05/31 10:52:29;;;;;;;1.77;1.67;;;;;;;;;;5033809;28;20018;-43
2022/05/31 10:55:03;;;;;;;2.53;2.00;;;;;;;;;;5033646;28;20113;-40
2022/05/31 10:57:53;;;;;;;3.75;2.03;;;;;;;;;;5033627;28;20021;-55
2022/05/31 11:00:56;;;;;;;2.38;1.90;;;;;;;;;;5033503;28;20059;-54
2022/05/31 11:03:46;;;;;;;2.45;1.95;;;;;;;;;;4933858;29;20067;-40
2022/05/31 11:06:30;;;;;;;2.35;1.95;;;;;;;;;;5030538;28;20164;-52
2022/05/31 11:12:08;;;;;;;2.00;1.80;;;;;;;;;;5033684;28;20531;-40
2022/05/31 11:14:46;;;;;;;5.53;2.78;;;;;;;;;;5033431;28;20453;-48
2022/05/31 11:17:47;;;;;;;2.63;2.10;;;;;;;;;;5033380;28;20029;-52
2022/05/31 11:20:30;;;;;;;3.50;2.00;;;;;;;;;;5031800;28;20025;-52
2022/05/31 11:23:32;;;;;;;2.45;2.10;;;;;;;;;;5033439;28;20025;-60
2022/05/31 11:26:21;;;;;;;2.78;2.38;;;;;;;;;;5032985;28;20041;-39
2022/05/31 11:29:13;;;;;;;2.60;2.00;;;;;;;;;;5033073;28;20029;-41
2022/05/31 11:31:58;;;;;;;2.47;2.28;;;;;;;;;;5033012;28;20378;-39
2022/05/31 11:34:36;;;;;;;5.22;1.85;;;;;;;;;;5030643;28;20040;-48
2022/05/31 11:37:21;;;;;;;2.33;2.10;;;;;;;;;;5031623;28;20164;-62
2022/05/31 11:40:03;;;;;;;3.22;2.40;;;;;;;;;;5031352;28;20033;-41
2022/05/31 11:42:32;;;;;;;1.75;1.60;;;;;;;;;;5031161;28;20044;-40
2022/05/31 11:45:19;;;;;;;2.10;1.90;;;;;;;;;;5031426;28;20362;-44
2022/05/31 11:48:08;;;;;;;1.95;1.85;;;;;;;;;;5017823;28;20056;-40
2022/05/31 11:50:44;;;;;;;2.78;2.13;;;;;;;;;;5011703;28;20026;-42
2022/05/31 11:53:25;;;;;;;2.10;1.90;;;;;;;;;;5010897;28;20061;-40
2022/05/31 11:56:04;;;;;;;1.92;1.73;;;;;;;;;;5011538;28;20022;-60
2022/05/31 11:58:39;;;;;;;2.80;1.65;;;;;;;;;;5011641;28;20366;-49
2022/05/31 12:01:23;;;;;;;2.65;2.05;;;;;;;;;;5011183;28;20021;-39
2022/05/31 12:03:53;;;;;;;1.80;1.70;;;;;;;;;;5011498;28;20080;-57
2022/05/31 12:06:36;;;;;;;2.17;1.90;;;;;;;;;;5010926;28;20026;-43
2022/05/31 12:09:17;;;;;;;4.55;2.17;;;;;;;;;;5011040;28;20116;-58
2022/05/31 12:11:54;;;;;;;2.63;2.00;;;;;;;;;;5011289;28;20152;-40
2022/05/31 12:14:22;;;;;;;4.47;2.30;;;;;;;;;;5011177;28;20097;-55
2022/05/31 12:16:48;;;;;;;2.20;2.00;;;;;;;;;;5011070;28;20022;-44
2022/05/31 12:19:24;;;;;;;2.30;1.83;;;;;;;;;;5011098;28;20077;-55
2022/05/31 12:21:57;;;;;;;3.10;1.75;;;;;;;;;;5011350;28;20018;-41
2022/05/31 12:24:41;;;;;;;1.85;1.52;;;;;;;;;;5011442;28;20480;-59
2022/05/31 12:27:10;;;;;;;2.38;2.05;;;;;;;;;;5010985;28;20477;-54
2022/05/31 12:30:04;;;;;;;2.00;1.80;;;;;;;;;;5010903;28;20057;-61
2022/05/31 12:32:36;;;;;;;2.42;1.95;;;;;;;;;;4976250;28;20046;-41
2022/05/31 12:35:04;;;;;;;1.92;1.83;;;;;;;;;;5011081;28;20099;-60
2022/05/31 12:38:10;;;;;;;2.65;2.05;;;;;;;;;;5010691;28;20129;-60
2022/05/31 12:40:41;;;;;;;3.15;1.90;;;;;;;;;;5010774;28;20026;-42
2022/05/31 12:43:16;;;;;;;2.05;1.85;;;;;;;;;;5011207;28;20073;-40
2022/05/31 12:45:47;;;;;;;2.28;2.08;;;;;;;;;;5010650;28;20033;-59
2022/05/31 12:48:21;;;;;;;4.07;2.10;;;;;;;;;;5014839;28;20030;-61
2022/05/31 12:50:54;;;;;;;2.80;1.98;;;;;;;;;;5014710;28;20477;-50
2022/05/31 12:53:41;;;;;;;2.00;1.80;;;;;;;;;;5014592;28;20022;-49
2022/05/31 12:56:37;;;;;;;3.75;2.42;;;;;;;;;;4997087;28;20022;-55
2022/05/31 12:59:06;;;;;;;2.28;2.08;;;;;;;;;;4988862;28;20556;-58
2022/05/31 13:01:56;;;;;;;3.45;2.28;;;;;;;;;;4996964;28;20044;-58
2022/05/31 13:04:26;;;;;;;3.15;2.35;;;;;;;;;;5001826;28;20034;-55
2022/05/31 13:07:13;;;;;;;;;;;;;;;;;;5024381;28;20072;-56
2022/05/31 13:09:45;;;;;;;3.60;2.28;;;;;;;;;;5017626;28;19917;-58
2022/05/31 13:20:59;;;;;;;3.75;2.70;;;;;;;;;;5030506;28;20396;-48
2022/05/31 13:23:28;;;;;;;2.63;1.90;;;;;;;;;;5014200;28;20021;-60
2022/05/31 13:25:58;;;;;;;2.42;2.22;;;;;;;;;;5014118;28;20030;-60
2022/05/31 13:28:32;;;;;;;2.83;2.58;;;;;;;;;;5014368;28;20076;-52
2022/05/31 13:31:14;;;;;;;2.55;1.95;;;;;;;;;;5015368;28;20077;-39
2022/05/31 13:33:40;;;;;;;2.75;2.17;;;;;;;;;;5015366;28;20022;-43
2022/05/31 13:36:15;;;;;;;3.15;2.25;;;;;;;;;;5015537;28;20117;-41
2022/05/31 13:38:44;;;;;;;3.53;2.20;;;;;;;;;;5015672;28;20052;-58
2022/05/31 13:41:17;;;;;;;4.40;2.10;;;;;;;;;;5014358;28;20036;-59
2022/05/31 13:43:55;;;;;;;2.47;2.28;;;;;;;;;;5013991;28;20038;-50
2022/05/31 13:46:53;;;;;;;4.05;2.00;;;;;;;;;;4996201;28;20030;-59
2022/05/31 13:49:30;;;;;;;2.33;1.90;;;;;;;;;;4969447;28;20400;-46
2022/05/31 13:51:59;;;;;;;4.75;2.60;;;;;;;;;;5013721;28;20033;-48
2022/05/31 13:54:28;;;;;;;2.25;2.05;;;;;;;;;;5013881;28;20018;-44
2022/05/31 13:56:59;;;;;;;3.53;2.63;;;;;;;;;;5013539;28;20060;-51
2022/05/31 13:59:43;;;;;;;4.72;2.00;;;;;;;;;;5012547;28;20030;-41
2022/05/31 14:02:15;;;;;;;4.90;2.20;;;;;;;;;;5013726;28;20036;-40
2022/05/31 14:04:42;;;;;;;5.05;2.25;;;;;;;;;;5013395;28;20030;-58
2022/05/31 14:07:16;;;;;;;2.63;1.88;;;;;;;;;;5013364;28;20042;-58
2022/05/31 14:09:54;;;;;;;2.10;1.80;;;;;;;;;;5013610;28;20038;-52
2022/05/31 14:12:22;;;;;;;2.75;2.25;;;;;;;;;;5014391;28;20068;-48
2022/05/31 14:14:47;;;;;;;4.38;2.08;;;;;;;;;;5015018;28;20067;-55
2022/05/31 14:17:35;;;;;;;2.45;2.00;;;;;;;;;;5004543;28;20029;-58
2022/05/31 14:20:01;;;;;;;2.30;2.10;;;;;;;;;;5032630;28;20480;-56
2022/05/31 14:22:31;;;;;;;2.60;1.88;;;;;;;;;;5033831;28;20036;-57
2022/05/31 14:24:58;;;;;;;2.53;2.00;;;;;;;;;;5033533;28;20029;-46
2022/05/31 14:27:26;;;;;;;2.13;1.88;;;;;;;;;;5033338;28;20084;-43
2022/05/31 14:30:12;;;;;;;2.17;2.08;;;;;;;;;;5033280;28;20042;-42
2022/05/31 14:32:48;;;;;;;2.40;2.17;;;;;;;;;;5033616;28;20032;-40
2022/05/31 14:35:34;;;;;;;3.22;2.50;;;;;;;;;;5034221;28;20472;-40
2022/05/31 14:38:04;;;;;;;2.17;1.98;;;;;;;;;;5034498;28;20040;-47
2022/05/31 14:40:36;;;;;;;2.95;2.13;;;;;;;;;;5033979;28;20544;-41
2022/05/31 14:43:14;;;;;;;2.88;2.13;;;;;;;;;;5034422;28;20033;-45
2022/05/31 14:45:50;;;;;;;5.05;2.35;;;;;;;;;;5034064;28;20037;-41
2022/05/31 14:48:31;;;;;;;4.20;2.72;;;;;;;;;;5034028;28;20026;-54
2022/05/31 14:50:59;;;;;;;3.38;2.25;;;;;;;;;;5033917;28;20040;-40
2022/05/31 14:53:33;;;;;;;4.53;2.45;;;;;;;;;;5034180;28;20372;-40
2022/05/31 14:55:59;;;;;;;3.17;2.33;;;;;;;;;;5033932;28;20430;-40
2022/05/31 14:58:38;;;;;;;2.55;2.30;;;;;;;;;;5033865;28;20036;-43
2022/05/31 15:01:26;;;;;;;3.90;2.60;;;;;;;;;;5033708;28;20519;-42
2022/05/31 15:04:06;;;;;;;3.95;2.38;;;;;;;;;;5018660;28;20033;-40
2022/05/31 15:06:39;;;;;;;3.45;2.00;;;;;;;;;;5033972;28;20473;-40
2022/05/31 15:09:08;;;;;;;3.17;2.53;;;;;;;;;;5033682;28;20025;-42
2022/05/31 15:19:49;;;;;;;2.90;2.38;;;;;;;;;;5033677;28;20040;-39
2022/05/31 15:22:18;;;;;;;4.00;2.70;;;;;;;;;;5033327;28;20109;-42
2022/05/31 15:24:49;;;;;;;6.15;3.33;;;;;;;;;;5033191;28;20025;-44
2022/05/31 15:27:36;;;;;;;2.47;2.28;;;;;;;;;;5033623;28;20079;-39
2022/05/31 15:30:04;;;;;;;3.38;2.38;;;;;;;;;;5033222;28;20049;-40
2022/05/31 15:32:30;;;;;;;2.40;2.20;;;;;;;;;;5033391;28;20381;-39
2022/05/31 15:34:56;;;;;;;3.22;2.42;;;;;;;;;;5033133;28;20037;-40
2022/05/31 15:37:24;;;;;;;2.65;2.03;;;;;;;;;;5032973;28;20031;-41
2022/05/31 15:39:51;;;;;;;3.83;2.25;;;;;;;;;;5033116;28;20076;-40